createdAt,value
2023-05-18T00:02:26.610Z,101740.38
2023-05-18T00:04:56.109Z,101740.31
2023-05-18T00:07:24.056Z,101749.47
2023-05-18T00:09:51.941Z,101752.97
2023-05-18T00:12:19.924Z,101759.00
2023-05-18T00:14:47.861Z,101760.59
2023-05-18T00:17:17.674Z,101749.81
2023-05-18T00:19:46.928Z,101770.31
2023-05-18T00:22:18.996Z,101782.44
2023-05-18T00:24:49.328Z,101792.78
2023-05-18T00:27:17.175Z,101788.38
2023-05-18T00:29:45.079Z,101786.75
2023-05-18T00:32:13.042Z,101794.56
2023-05-18T00:34:41.020Z,101798.78
2023-05-18T00:37:08.950Z,101800.41
2023-05-18T00:39:38.459Z,101801.94
2023-05-18T00:42:06.839Z,101797.16
2023-05-18T00:44:34.809Z,101790.50
2023-05-18T00:47:03.205Z,101809.44
2023-05-18T00:49:31.337Z,101802.97
2023-05-18T00:52:01.557Z,101802.91
2023-05-18T00:54:30.808Z,101806.31
2023-05-18T00:57:02.203Z,101817.44
2023-05-18T00:59:30.709Z,101821.56
2023-05-18T01:01:59.614Z,101826.59
2023-05-18T01:04:27.992Z,101831.38
2023-05-18T01:06:58.598Z,101839.78
2023-05-18T01:09:26.625Z,101848.31
2023-05-18T01:12:02.933Z,101845.41
2023-05-18T01:14:36.633Z,101846.91
2023-05-18T01:17:11.394Z,101849.22
2023-05-18T01:20:07.191Z,101852.44
2023-05-18T01:22:51.472Z,101856.34
2023-05-18T01:25:29.952Z,101869.88
2023-05-18T01:28:06.153Z,101852.75
2023-05-18T01:30:35.586Z,101874.78
2023-05-18T01:33:08.396Z,101874.56
2023-05-18T01:35:36.992Z,101876.88
2023-05-18T01:38:05.113Z,101878.38
2023-05-18T01:40:36.576Z,101886.88
2023-05-18T01:43:11.273Z,101886.56
2023-05-18T01:45:43.420Z,101899.38
2023-05-18T01:48:13.153Z,101900.88
2023-05-18T01:50:46.345Z,101902.50
2023-05-18T01:53:21.240Z,101900.19
2023-05-18T01:55:51.486Z,101882.97
2023-05-18T01:58:23.111Z,101905.19
2023-05-18T02:00:51.695Z,101918.19
2023-05-18T02:03:19.953Z,101933.78
2023-05-18T02:05:48.146Z,101929.38
2023-05-18T02:08:16.368Z,101937.28
2023-05-18T02:10:44.323Z,101937.06
2023-05-18T02:13:12.292Z,101935.97
2023-05-18T02:15:41.523Z,101956.75
2023-05-18T02:18:09.419Z,101950.66
2023-05-18T02:20:38.220Z,101944.16
2023-05-18T02:23:06.117Z,101953.94
2023-05-18T02:25:34.024Z,101935.25
2023-05-18T02:28:02.134Z,101940.34
2023-05-18T02:30:33.208Z,101953.84
2023-05-18T02:33:03.372Z,101953.53
2023-05-18T02:35:32.222Z,101969.56
2023-05-18T02:38:00.547Z,101973.94
2023-05-18T02:40:28.414Z,101975.66
2023-05-18T02:42:56.492Z,101969.56
2023-05-18T02:45:26.450Z,101965.25
2023-05-18T02:47:54.547Z,101966.25
2023-05-18T02:50:23.975Z,101925.69
2023-05-18T02:52:51.833Z,101970.66
2023-05-18T02:55:20.048Z,101961.84
2023-05-18T02:57:48.318Z,101968.06
2023-05-18T03:00:18.180Z,101963.66
2023-05-18T03:02:48.626Z,101983.97
2023-05-18T03:05:18.598Z,101980.56
2023-05-18T03:07:51.070Z,101969.66
2023-05-18T03:10:20.099Z,101983.97
2023-05-18T03:12:48.442Z,101989.97
2023-05-18T03:15:16.453Z,101996.88
2023-05-18T03:17:44.561Z,101986.94
2023-05-18T03:20:15.650Z,101996.75
2023-05-18T03:22:43.693Z,102001.84
2023-05-18T03:25:13.011Z,102015.28
2023-05-18T03:27:40.878Z,102027.69
2023-05-18T03:30:10.014Z,102008.16
2023-05-18T03:32:38.389Z,102028.81
2023-05-18T03:35:06.981Z,102032.41
2023-05-18T03:37:34.840Z,102013.69
2023-05-18T03:40:14.652Z,102024.72
2023-05-18T03:42:43.624Z,102013.47
2023-05-18T03:45:12.447Z,102040.47
2023-05-18T03:47:41.400Z,102028.91
2023-05-18T03:50:09.937Z,102047.91
2023-05-18T03:52:38.182Z,102049.81
2023-05-18T03:55:07.137Z,102031.88
2023-05-18T03:57:36.386Z,102061.53
2023-05-18T04:00:09.471Z,102065.56
2023-05-18T04:02:37.843Z,102067.56
2023-05-18T04:05:06.891Z,101985.09
2023-05-18T04:07:34.786Z,102068.78
2023-05-18T04:10:03.859Z,102069.91
2023-05-18T04:12:31.817Z,102053.66
2023-05-18T04:15:01.165Z,102074.63
2023-05-18T04:17:29.768Z,102080.03
2023-05-18T04:19:57.894Z,102085.63
2023-05-18T04:22:29.866Z,102072.63
2023-05-18T04:24:57.842Z,102083.56
2023-05-18T04:27:25.842Z,102085.56
2023-05-18T04:29:53.698Z,102087.50
2023-05-18T04:32:27.103Z,102087.72
2023-05-18T04:34:58.633Z,102073.56
2023-05-18T04:37:26.631Z,102090.72
2023-05-18T04:39:54.792Z,102098.72
2023-05-18T04:42:22.674Z,102102.44
2023-05-18T04:44:52.280Z,102105.34
2023-05-18T04:47:22.086Z,102104.66
2023-05-18T04:49:52.425Z,102112.34
2023-05-18T04:52:20.752Z,102107.03
2023-05-18T04:54:48.891Z,102116.56
2023-05-18T04:57:16.868Z,102119.28
2023-05-18T04:59:47.375Z,102124.78
2023-05-18T05:02:15.358Z,102124.19
2023-05-18T05:04:43.374Z,102134.72
2023-05-18T05:07:12.720Z,102124.38
2023-05-18T05:09:40.575Z,102140.03
2023-05-18T05:12:09.248Z,102132.41
2023-05-18T05:14:37.175Z,102134.22
2023-05-18T05:17:05.343Z,102139.63
2023-05-18T05:19:33.555Z,102099.53
2023-05-18T05:22:04.852Z,102142.72
2023-05-18T05:24:34.701Z,102074.59
2023-05-18T05:27:06.769Z,102141.22
2023-05-18T05:29:34.737Z,102037.66
2023-05-18T05:32:02.628Z,102149.34
2023-05-18T05:34:30.663Z,102098.94
2023-05-18T05:36:58.625Z,102150.84
2023-05-18T05:39:26.782Z,102157.16
2023-05-18T05:41:57.190Z,102159.84
2023-05-18T05:44:25.345Z,102154.72
2023-05-18T05:46:53.358Z,102166.25
2023-05-18T05:49:21.574Z,102172.47
2023-05-18T05:51:49.676Z,102169.88
2023-05-18T05:54:17.569Z,102179.88
2023-05-18T05:56:45.759Z,102167.66
2023-05-18T05:59:15.613Z,102178.97
2023-05-18T06:01:43.551Z,102188.09
2023-05-18T06:04:12.705Z,102166.81
2023-05-18T06:06:41.605Z,102121.25
2023-05-18T06:09:09.551Z,102191.66
2023-05-18T06:11:37.638Z,102192.06
2023-05-18T06:14:05.858Z,102195.66
2023-05-18T06:16:35.226Z,102205.28
2023-05-18T06:19:03.315Z,102198.25
2023-05-18T06:21:31.728Z,102161.38
2023-05-18T06:24:01.415Z,102171.59
2023-05-18T06:26:29.388Z,102197.41
2023-05-18T06:28:57.513Z,102202.31
2023-05-18T06:31:25.950Z,102158.31
2023-05-18T06:33:55.610Z,102194.94
2023-05-18T06:36:23.579Z,102214.59
2023-05-18T06:38:51.450Z,102199.47
2023-05-18T06:41:19.710Z,102212.28
2023-05-18T06:43:47.776Z,102205.78
2023-05-18T06:46:21.192Z,102196.31
2023-05-18T06:48:49.418Z,102221.47
2023-05-18T06:51:18.665Z,102231.91
2023-05-18T06:53:47.654Z,102206.75
2023-05-18T06:56:18.909Z,102166.69
2023-05-18T06:58:46.861Z,102226.34
2023-05-18T07:01:15.540Z,102231.50
2023-05-18T07:03:43.640Z,102227.34
2023-05-18T07:06:12.031Z,102224.38
2023-05-18T07:08:41.743Z,102232.81
2023-05-18T07:11:09.900Z,102229.66
2023-05-18T07:13:37.802Z,102235.50
2023-05-18T07:16:05.932Z,102236.50
2023-05-18T07:18:34.119Z,102218.06
2023-05-18T07:21:02.192Z,102242.28
2023-05-18T07:23:30.084Z,102241.09
2023-05-18T07:25:59.559Z,102237.38
2023-05-18T07:28:29.456Z,102250.44
2023-05-18T07:30:57.318Z,102247.16
2023-05-18T07:33:25.307Z,102240.84
2023-05-18T07:35:53.219Z,102248.16
2023-05-18T07:38:21.129Z,102245.09
2023-05-18T07:40:49.108Z,102241.88
2023-05-18T07:43:18.380Z,102250.06
2023-05-18T07:45:46.369Z,102246.91
2023-05-18T07:48:15.636Z,102267.38
2023-05-18T07:50:43.532Z,102252.00
2023-05-18T07:53:11.467Z,102248.47
2023-05-18T07:55:39.471Z,102224.84
2023-05-18T07:58:07.363Z,102263.22
2023-05-18T08:00:37.384Z,102255.78
2023-05-18T08:03:06.947Z,102249.69
2023-05-18T08:05:34.956Z,102253.69
2023-05-18T08:08:06.625Z,102268.38
2023-05-18T08:10:35.208Z,102269.25
2023-05-18T08:13:03.559Z,102148.81
2023-05-18T08:15:31.647Z,102270.28
2023-05-18T08:18:01.635Z,102220.72
2023-05-18T08:20:30.221Z,102265.38
2023-05-18T08:22:58.153Z,102259.38
2023-05-18T08:25:26.500Z,102252.09
2023-05-18T08:27:54.686Z,102252.53
2023-05-18T08:30:22.821Z,102270.50
2023-05-18T08:32:50.936Z,102219.94
2023-05-18T08:35:20.335Z,102267.41
2023-05-18T08:37:50.171Z,102274.34
2023-05-18T08:40:18.209Z,102280.69
2023-05-18T08:42:52.558Z,102275.59
2023-05-18T08:45:25.149Z,102270.59
2023-05-18T08:47:57.204Z,102280.25
2023-05-18T08:50:27.676Z,102288.50
2023-05-18T08:52:57.075Z,102284.63
2023-05-18T08:55:26.666Z,102278.56
2023-05-18T08:58:00.012Z,102305.94
2023-05-18T09:00:28.346Z,102274.50
2023-05-18T09:02:56.964Z,102304.19
2023-05-18T09:05:26.480Z,102299.97
2023-05-18T09:07:57.253Z,102309.13
2023-05-18T09:10:26.004Z,102309.13
2023-05-18T09:12:55.937Z,102309.53
2023-05-18T09:15:25.477Z,102307.63
2023-05-18T09:17:53.627Z,102310.06
2023-05-18T09:20:21.884Z,102308.00
2023-05-18T09:22:51.803Z,102316.69
2023-05-18T09:25:20.064Z,102307.69
2023-05-18T09:27:49.378Z,102320.63
2023-05-18T09:30:17.402Z,102320.75
2023-05-18T09:32:48.244Z,102320.75
2023-05-18T09:35:16.796Z,102315.06
2023-05-18T09:37:44.680Z,102332.09
2023-05-18T09:40:16.169Z,102329.19
2023-05-18T09:42:46.039Z,102327.22
2023-05-18T09:45:18.973Z,102328.22
2023-05-18T09:47:47.442Z,102333.16
2023-05-18T09:50:15.358Z,102332.00
2023-05-18T09:52:44.303Z,102332.59
2023-05-18T09:55:14.147Z,102335.00
2023-05-18T09:57:44.317Z,102338.31
2023-05-18T10:00:13.539Z,102341.75
2023-05-18T10:02:42.394Z,102323.28
2023-05-18T10:05:20.789Z,102330.91
2023-05-18T10:07:48.977Z,102328.56
2023-05-18T10:10:20.887Z,102341.53
2023-05-18T10:12:49.404Z,102328.41
2023-05-18T10:15:19.676Z,102350.97
2023-05-18T10:17:48.516Z,102341.72
2023-05-18T10:20:19.995Z,102299.56
2023-05-18T10:22:49.586Z,102315.53
2023-05-18T10:25:22.469Z,102344.47
2023-05-18T10:27:51.951Z,102279.91
2023-05-18T10:30:22.926Z,102227.66
2023-05-18T10:32:52.595Z,102343.97
2023-05-18T10:35:21.814Z,102366.06
2023-05-18T10:37:53.112Z,102361.25
2023-05-18T10:40:22.650Z,102368.19
2023-05-18T10:42:53.290Z,102370.72
2023-05-18T10:45:21.821Z,102351.78
2023-05-18T10:47:54.345Z,102367.84
2023-05-18T10:50:23.981Z,102367.28
2023-05-18T10:52:54.331Z,102342.00
2023-05-18T10:55:23.776Z,102372.69
2023-05-18T10:57:56.463Z,102351.56
2023-05-18T11:00:24.723Z,102362.63
2023-05-18T11:02:53.828Z,102358.72
2023-05-18T11:05:26.068Z,102371.22
2023-05-18T11:08:01.562Z,102380.91
2023-05-18T11:10:37.047Z,102379.16
2023-05-18T11:13:07.143Z,102379.09
2023-05-18T11:16:06.650Z,102379.47
2023-05-18T11:18:44.441Z,102383.16
2023-05-18T11:21:23.413Z,102386.03
2023-05-18T11:24:24.906Z,102379.94
2023-05-18T11:26:56.085Z,102379.16
2023-05-18T11:29:25.927Z,102378.84
2023-05-18T11:31:58.840Z,102369.72
2023-05-18T11:34:45.410Z,102392.03
2023-05-18T11:37:16.263Z,102356.91
2023-05-18T11:39:59.702Z,102361.69
2023-05-18T11:42:35.244Z,102385.78
2023-05-18T11:45:10.583Z,102381.50
2023-05-18T11:47:40.577Z,102328.59
2023-05-18T11:50:10.421Z,102391.19
2023-05-18T11:52:48.027Z,102392.97
2023-05-18T11:55:17.464Z,102387.03
2023-05-18T11:57:52.397Z,102392.16
2023-05-18T12:00:21.634Z,102392.44
2023-05-18T12:02:52.636Z,102389.47
2023-05-18T12:05:21.180Z,102390.88
2023-05-18T12:07:54.130Z,102392.84
2023-05-18T12:10:22.517Z,102398.63
2023-05-18T12:12:53.524Z,102393.47
2023-05-18T12:15:24.039Z,102396.13
2023-05-18T12:17:52.809Z,102395.25
2023-05-18T12:20:22.430Z,102396.16
2023-05-18T12:22:52.992Z,102397.19
2023-05-18T12:25:22.046Z,102411.50
2023-05-18T12:27:53.365Z,102400.38
2023-05-18T12:30:22.775Z,102406.84
2023-05-18T12:32:53.432Z,102414.91
2023-05-18T12:35:23.729Z,102419.34
2023-05-18T12:37:51.918Z,102421.16
2023-05-18T12:40:21.186Z,102426.50
2023-05-18T12:42:54.634Z,102423.50
2023-05-18T12:45:25.251Z,102417.50
2023-05-18T12:47:55.301Z,102439.88
2023-05-18T12:50:25.051Z,102420.78
2023-05-18T12:52:53.400Z,102430.34
2023-05-18T12:55:22.960Z,102437.50
2023-05-18T12:58:02.105Z,102423.84
2023-05-18T13:00:33.898Z,102424.66
2023-05-18T13:03:08.906Z,102416.81
2023-05-18T13:05:38.396Z,102422.28
2023-05-18T13:08:06.712Z,102424.06
2023-05-18T13:10:34.921Z,102418.25
2023-05-18T13:13:04.897Z,102404.50
2023-05-18T13:15:37.806Z,102419.22
2023-05-18T13:18:10.184Z,102424.16
2023-05-18T13:20:43.278Z,102427.34
2023-05-18T13:23:13.128Z,102408.63
2023-05-18T13:25:41.069Z,102427.31
2023-05-18T13:28:11.686Z,102430.06
2023-05-18T13:30:40.211Z,102430.94
2023-05-18T13:33:09.358Z,102431.78
2023-05-18T13:35:37.728Z,102428.28
2023-05-18T13:38:06.572Z,102438.97
2023-05-18T13:40:34.564Z,102437.75
2023-05-18T13:43:02.852Z,102451.22
2023-05-18T13:45:33.022Z,102439.84
2023-05-18T13:48:01.438Z,102434.50
2023-05-18T13:50:29.715Z,102447.91
2023-05-18T13:52:58.110Z,102436.84
2023-05-18T13:55:26.062Z,102433.50
2023-05-18T13:57:55.247Z,102431.00
2023-05-18T14:00:23.288Z,102448.63
2023-05-18T14:02:53.234Z,102441.06
2023-05-18T14:05:22.329Z,102448.81
2023-05-18T14:07:50.423Z,102445.44
2023-05-18T14:10:18.264Z,102443.34
2023-05-18T14:12:46.368Z,102437.69
2023-05-18T14:15:14.973Z,102431.31
2023-05-18T14:17:43.793Z,102444.44
2023-05-18T14:20:13.855Z,102437.22
2023-05-18T14:22:42.028Z,102441.81
2023-05-18T14:25:10.730Z,102441.47
2023-05-18T14:27:38.986Z,102441.97
2023-05-18T14:30:09.200Z,102454.84
2023-05-18T14:32:37.530Z,102435.19
2023-05-18T14:35:06.195Z,102418.78
2023-05-18T14:37:35.567Z,102452.88
2023-05-18T14:40:05.933Z,102457.66
2023-05-18T14:42:34.069Z,102459.50
2023-05-18T14:45:02.014Z,102452.59
2023-05-18T14:47:29.975Z,102447.81
2023-05-18T14:49:57.844Z,102444.59
2023-05-18T14:52:26.290Z,102438.09
2023-05-18T14:54:55.536Z,102444.28
2023-05-18T14:57:25.357Z,102451.47
2023-05-18T14:59:54.552Z,102455.06
2023-05-18T15:02:22.478Z,102448.66
2023-05-18T15:04:50.450Z,102444.19
2023-05-18T15:07:18.592Z,102448.81
2023-05-18T15:09:47.588Z,102330.06
2023-05-18T15:12:19.791Z,102452.63
2023-05-18T15:14:47.729Z,102443.50
2023-05-18T15:17:16.121Z,102443.50
2023-05-18T15:19:43.983Z,102450.91
2023-05-18T15:22:11.849Z,102443.94
2023-05-18T15:24:39.877Z,102447.84
2023-05-18T15:27:08.826Z,102455.97
2023-05-18T15:29:38.064Z,102438.91
2023-05-18T15:32:07.144Z,102435.81
2023-05-18T15:34:35.313Z,102444.31
2023-05-18T15:37:03.485Z,102445.94
2023-05-18T15:39:31.528Z,102442.69
2023-05-18T15:41:59.476Z,102453.13
2023-05-18T15:44:29.481Z,102457.09
2023-05-18T15:46:59.070Z,102451.00
2023-05-18T15:49:27.038Z,102448.63
2023-05-18T15:51:54.942Z,102446.63
2023-05-18T15:54:22.975Z,102441.59
2023-05-18T15:56:51.129Z,102439.06
2023-05-18T15:59:19.000Z,102437.41
2023-05-18T16:01:47.200Z,102447.59
2023-05-18T16:04:16.529Z,102450.69
2023-05-18T16:06:44.541Z,102452.09
2023-05-18T16:09:12.670Z,102454.41
2023-05-18T16:11:40.583Z,102456.03
2023-05-18T16:14:09.563Z,102450.22
2023-05-18T16:16:37.605Z,102442.84
2023-05-18T16:19:07.554Z,102445.66
2023-05-18T16:21:36.947Z,102433.56
2023-05-18T16:24:05.361Z,102437.19
2023-05-18T16:26:34.086Z,102435.34
2023-05-18T16:29:03.357Z,102433.44
2023-05-18T16:31:31.525Z,102426.28
2023-05-18T16:33:59.873Z,102425.41
2023-05-18T16:36:28.301Z,102432.75
2023-05-18T16:39:02.884Z,102439.00
2023-05-18T16:41:30.801Z,102442.56
2023-05-18T16:43:58.740Z,102434.53
2023-05-18T16:46:26.795Z,102454.19
2023-05-18T16:48:54.980Z,102441.66
2023-05-18T16:51:23.502Z,102447.91
2023-05-18T16:53:52.756Z,102429.88
2023-05-18T16:56:22.527Z,102445.88
2023-05-18T16:58:52.376Z,102445.84
2023-05-18T17:01:28.218Z,102448.44
2023-05-18T17:03:57.417Z,102437.47
2023-05-18T17:06:26.105Z,102462.09
2023-05-18T17:08:58.184Z,102463.44
2023-05-18T17:11:28.104Z,102468.06
2023-05-18T17:13:57.685Z,102444.88
2023-05-18T17:16:26.827Z,102474.00
2023-05-18T17:18:56.174Z,102454.75
2023-05-18T17:21:26.713Z,102460.66
2023-05-18T17:23:54.647Z,102468.47
2023-05-18T17:26:23.028Z,102480.63
2023-05-18T17:28:53.059Z,102486.72
2023-05-18T17:31:21.042Z,102483.84
2023-05-18T17:33:49.025Z,102485.97
2023-05-18T17:36:18.251Z,102449.63
2023-05-18T17:38:46.935Z,102490.28
2023-05-18T17:41:15.016Z,102494.44
2023-05-18T17:43:42.939Z,102488.78
2023-05-18T17:46:12.194Z,102487.47
2023-05-18T17:48:40.166Z,102484.47
2023-05-18T17:51:08.313Z,102496.47
2023-05-18T17:53:41.883Z,102480.94
2023-05-18T17:56:10.532Z,102479.88
2023-05-18T17:58:39.457Z,102501.28
2023-05-18T18:01:08.751Z,102414.94
2023-05-18T18:03:38.450Z,102494.19
2023-05-18T18:06:06.789Z,102485.06
2023-05-18T18:08:34.804Z,102459.78
2023-05-18T18:11:02.902Z,102486.13
2023-05-18T18:13:30.899Z,102496.53
2023-05-18T18:16:00.360Z,102499.78
2023-05-18T18:18:28.518Z,102498.66
2023-05-18T18:21:00.282Z,102480.56
2023-05-18T18:23:28.320Z,102497.59
2023-05-18T18:25:56.406Z,102508.06
2023-05-18T18:28:24.277Z,102501.75
2023-05-18T18:30:52.261Z,102508.66
2023-05-18T18:33:21.730Z,102499.44
2023-05-18T18:35:50.018Z,102498.50
2023-05-18T18:38:19.336Z,102513.44
2023-05-18T18:40:47.396Z,102495.34
2023-05-18T18:43:15.835Z,102519.38
2023-05-18T18:45:43.978Z,102508.72
2023-05-18T18:48:11.951Z,102505.22
2023-05-18T18:50:39.965Z,102515.56
2023-05-18T18:53:07.858Z,102499.25
2023-05-18T18:55:37.339Z,102517.84
2023-05-18T18:58:05.248Z,102514.25
2023-05-18T19:00:33.130Z,102517.56
2023-05-18T19:03:01.146Z,102526.16
2023-05-18T19:05:31.011Z,102524.88
2023-05-18T19:07:59.430Z,102511.56
2023-05-18T19:10:27.353Z,102484.84
2023-05-18T19:12:59.451Z,102534.59
2023-05-18T19:15:27.494Z,102541.94
2023-05-18T19:17:55.539Z,102538.78
2023-05-18T19:20:24.091Z,102550.66
2023-05-18T19:22:53.475Z,102552.97
2023-05-18T19:25:21.697Z,102551.59
2023-05-18T19:27:49.577Z,102554.78
2023-05-18T19:30:21.230Z,102545.34
2023-05-18T19:32:49.978Z,102551.03
2023-05-18T19:35:19.802Z,102556.13
2023-05-18T19:37:48.263Z,102570.88
2023-05-18T19:40:17.002Z,102567.69
2023-05-18T19:42:45.338Z,102569.06
2023-05-18T19:45:13.216Z,102560.81
2023-05-18T19:47:45.005Z,102580.88
2023-05-18T19:50:13.246Z,102587.59
2023-05-18T19:52:41.310Z,102584.50
2023-05-18T19:55:09.483Z,102584.06
2023-05-18T19:57:37.366Z,102581.75
2023-05-18T20:00:07.120Z,102584.97
2023-05-18T20:02:35.152Z,102588.13
2023-05-18T20:05:06.080Z,102585.94
2023-05-18T20:07:34.415Z,102590.16
2023-05-18T20:10:02.442Z,102594.28
2023-05-18T20:12:32.188Z,102593.00
2023-05-18T20:15:00.178Z,102580.22
2023-05-18T20:17:28.343Z,102592.69
2023-05-18T20:19:56.254Z,102596.13
2023-05-18T20:22:25.584Z,102597.63
2023-05-18T20:24:54.396Z,102582.84
2023-05-18T20:27:22.379Z,102592.44
2023-05-18T20:29:50.287Z,102592.22
2023-05-18T20:32:18.329Z,102599.84
2023-05-18T20:34:46.218Z,102601.50
2023-05-18T20:37:14.906Z,102607.41
2023-05-18T20:39:50.598Z,102559.09
2023-05-18T20:42:22.086Z,102607.03
2023-05-18T20:44:52.419Z,102552.53
2023-05-18T20:47:21.135Z,102619.81
2023-05-18T20:49:49.339Z,102612.53
2023-05-18T20:52:17.409Z,102561.72
2023-05-18T20:54:47.408Z,102613.75
2023-05-18T20:57:15.375Z,102619.09
2023-05-18T20:59:43.475Z,102622.38
2023-05-18T21:02:11.328Z,102628.44
2023-05-18T21:04:39.265Z,102629.19
2023-05-18T21:07:07.196Z,102619.16
2023-05-18T21:09:35.062Z,102631.56
2023-05-18T21:12:04.529Z,102626.53
2023-05-18T21:14:32.490Z,102640.16
2023-05-18T21:17:00.607Z,102626.53
2023-05-18T21:19:28.614Z,102644.25
2023-05-18T21:21:56.852Z,102634.88
2023-05-18T21:24:24.744Z,102641.28
2023-05-18T21:26:52.874Z,102631.28
2023-05-18T21:29:22.297Z,102644.66
2023-05-18T21:31:50.274Z,102504.53
2023-05-18T21:34:18.220Z,102649.47
2023-05-18T21:36:46.417Z,102646.50
2023-05-18T21:39:14.328Z,102646.34
2023-05-18T21:41:44.398Z,102646.25
2023-05-18T21:44:12.508Z,102654.38
2023-05-18T21:46:41.830Z,102641.75
2023-05-18T21:49:09.892Z,102634.81
2023-05-18T21:51:37.837Z,102658.13
2023-05-18T21:54:06.006Z,102663.03
2023-05-18T21:56:34.883Z,102661.22
2023-05-18T21:59:02.856Z,102646.69
2023-05-18T22:01:30.997Z,102660.88
2023-05-18T22:04:00.812Z,102656.09
2023-05-18T22:06:29.391Z,102668.47
2023-05-18T22:08:57.285Z,102657.72
2023-05-18T22:11:25.144Z,102667.41
2023-05-18T22:13:53.147Z,102653.88
2023-05-18T22:16:21.323Z,102645.75
2023-05-18T22:18:49.248Z,102658.03
2023-05-18T22:21:18.643Z,102632.53
2023-05-18T22:23:46.477Z,102657.03
2023-05-18T22:26:14.469Z,102657.88
2023-05-18T22:28:42.626Z,102648.34
2023-05-18T22:31:10.584Z,102666.38
2023-05-18T22:33:38.465Z,102663.47
2023-05-18T22:36:07.202Z,102668.63
2023-05-18T22:38:36.440Z,102672.06
2023-05-18T22:41:04.293Z,102643.09
2023-05-18T22:43:32.250Z,102655.66
2023-05-18T22:46:00.210Z,102659.91
2023-05-18T22:48:28.559Z,102669.03
2023-05-18T22:50:57.379Z,102651.88
2023-05-18T22:53:25.230Z,102671.31
2023-05-18T22:55:56.582Z,102659.09
2023-05-18T22:58:24.680Z,102669.13
2023-05-18T23:00:52.824Z,102621.13
2023-05-18T23:03:20.847Z,102680.25
2023-05-18T23:05:49.458Z,102671.38
2023-05-18T23:08:17.420Z,102673.91
2023-05-18T23:10:45.367Z,102673.75
2023-05-18T23:13:16.188Z,102678.78
2023-05-18T23:15:44.444Z,102678.69
2023-05-18T23:18:12.592Z,102682.22
2023-05-18T23:20:41.667Z,102676.81
2023-05-18T23:23:09.974Z,102686.47
2023-05-18T23:25:37.851Z,102678.34
2023-05-18T23:28:06.228Z,102684.38
2023-05-18T23:30:35.484Z,102683.19
2023-05-18T23:33:04.014Z,102688.97
2023-05-18T23:35:32.584Z,102672.59
2023-05-18T23:38:04.763Z,102687.69
2023-05-18T23:40:33.833Z,102691.94
2023-05-18T23:43:02.565Z,102689.94
2023-05-18T23:45:31.139Z,102683.41
2023-05-18T23:48:01.103Z,102690.47
2023-05-18T23:50:29.722Z,102682.84
2023-05-18T23:53:04.268Z,102694.31
2023-05-18T23:55:34.999Z,102703.97
2023-05-18T23:58:03.794Z,102702.97
